sensor_id;sensor_type;location;lat;lon;timestamp;pressure;altitude;pressure_sealevel;temperature;humidity
59337;BME280;45115;52.002;4.686;2022-11-20T00:02:17;101405.91;;;-3.27;100.00
59337;BME280;45115;52.002;4.686;2022-11-20T00:04:43;101413.03;;;-3.45;100.00
59337;BME280;45115;52.002;4.686;2022-11-20T00:07:10;101404.09;;;-3.51;100.00
59337;BME280;45115;52.002;4.686;2022-11-20T00:09:37;101413.19;;;-3.47;100.00
59337;BME280;45115;52.002;4.686;2022-11-20T00:12:04;101415.16;;;-3.33;100.00
59337;BME280;45115;52.002;4.686;2022-11-20T00:14:31;101403.78;;;-3.40;100.00
59337;BME280;45115;52.002;4.686;2022-11-20T00:16:57;101414.84;;;-3.29;100.00
59337;BME280;45115;52.002;4.686;2022-11-20T00:19:25;101400.38;;;-3.49;100.00
59337;BME280;45115;52.002;4.686;2022-11-20T00:21:52;101414.81;;;-3.46;100.00
59337;BME280;45115;52.002;4.686;2022-11-20T00:24:20;101417.06;;;-3.51;100.00
59337;BME280;45115;52.002;4.686;2022-11-20T00:26:47;101414.34;;;-3.50;100.00
59337;BME280;45115;52.002;4.686;2022-11-20T00:29:14;101421.59;;;-3.53;100.00
59337;BME280;45115;52.002;4.686;2022-11-20T00:31:41;101427.56;;;-3.61;100.00
59337;BME280;45115;52.002;4.686;2022-11-20T00:34:09;101415.09;;;-3.66;100.00
59337;BME280;45115;52.002;4.686;2022-11-20T00:36:37;101411.41;;;-3.55;100.00
59337;BME280;45115;52.002;4.686;2022-11-20T00:39:04;101403.78;;;-3.48;100.00
59337;BME280;45115;52.002;4.686;2022-11-20T00:41:31;101407.41;;;-3.16;100.00
59337;BME280;45115;52.002;4.686;2022-11-20T00:43:58;101404.16;;;-3.10;100.00
59337;BME280;45115;52.002;4.686;2022-11-20T00:46:26;101404.13;;;-3.01;100.00
59337;BME280;45115;52.002;4.686;2022-11-20T00:48:53;101398.13;;;-2.94;100.00
59337;BME280;45115;52.002;4.686;2022-11-20T00:51:21;101389.88;;;-2.97;100.00
59337;BME280;45115;52.002;4.686;2022-11-20T00:53:50;101386.78;;;-3.17;100.00
59337;BME280;45115;52.002;4.686;2022-11-20T00:56:18;101392.47;;;-3.30;100.00
59337;BME280;45115;52.002;4.686;2022-11-20T00:58:46;101392.28;;;-3.37;100.00
59337;BME280;45115;52.002;4.686;2022-11-20T01:01:15;101392.59;;;-3.49;100.00
59337;BME280;45115;52.002;4.686;2022-11-20T01:03:44;101383.66;;;-3.54;100.00
59337;BME280;45115;52.002;4.686;2022-11-20T01:06:14;101392.88;;;-3.68;100.00
59337;BME280;45115;52.002;4.686;2022-11-20T01:08:42;101389.94;;;-3.82;100.00
59337;BME280;45115;52.002;4.686;2022-11-20T01:11:12;101393.47;;;-3.91;100.00
59337;BME280;45115;52.002;4.686;2022-11-20T01:13:40;101392.16;;;-3.95;100.00
59337;BME280;45115;52.002;4.686;2022-11-20T01:16:09;101385.00;;;-4.02;100.00
59337;BME280;45115;52.002;4.686;2022-11-20T01:18:37;101399.28;;;-3.97;100.00
59337;BME280;45115;52.002;4.686;2022-11-20T01:21:06;101394.75;;;-3.95;100.00
59337;BME280;45115;52.002;4.686;2022-11-20T01:23:34;101398.84;;;-3.84;100.00
59337;BME280;45115;52.002;4.686;2022-11-20T01:26:02;101382.97;;;-3.81;100.00
59337;BME280;45115;52.002;4.686;2022-11-20T01:28:30;101395.44;;;-3.77;100.00
59337;BME280;45115;52.002;4.686;2022-11-20T01:30:57;101389.44;;;-3.85;100.00
59337;BME280;45115;52.002;4.686;2022-11-20T01:33:25;101379.41;;;-3.80;100.00
59337;BME280;45115;52.002;4.686;2022-11-20T01:35:52;101392.53;;;-3.82;100.00
59337;BME280;45115;52.002;4.686;2022-11-20T01:38:19;101381.78;;;-3.95;100.00
59337;BME280;45115;52.002;4.686;2022-11-20T01:40:54;101376.25;;;-4.01;100.00
59337;BME280;45115;52.002;4.686;2022-11-20T01:43:22;101372.16;;;-4.11;100.00
59337;BME280;45115;52.002;4.686;2022-11-20T01:46:16;101374.59;;;-4.18;100.00
59337;BME280;45115;52.002;4.686;2022-11-20T01:48:49;101383.75;;;-4.32;100.00
59337;BME280;45115;52.002;4.686;2022-11-20T01:51:22;101372.69;;;-4.43;100.00
59337;BME280;45115;52.002;4.686;2022-11-20T01:53:54;101377.00;;;-4.51;100.00
59337;BME280;45115;52.002;4.686;2022-11-20T01:56:22;101382.50;;;-4.55;100.00
59337;BME280;45115;52.002;4.686;2022-11-20T01:58:52;101384.13;;;-4.54;100.00
59337;BME280;45115;52.002;4.686;2022-11-20T02:01:22;101368.66;;;-4.72;100.00
59337;BME280;45115;52.002;4.686;2022-11-20T02:03:49;101387.59;;;-4.71;100.00
59337;BME280;45115;52.002;4.686;2022-11-20T02:06:20;101385.19;;;-4.91;100.00
59337;BME280;45115;52.002;4.686;2022-11-20T02:08:50;101381.91;;;-4.93;100.00
59337;BME280;45115;52.002;4.686;2022-11-20T02:11:17;101385.25;;;-5.01;100.00
59337;BME280;45115;52.002;4.686;2022-11-20T02:13:44;101395.47;;;-4.99;100.00
59337;BME280;45115;52.002;4.686;2022-11-20T02:16:12;101391.53;;;-5.03;100.00
59337;BME280;45115;52.002;4.686;2022-11-20T02:18:43;101384.69;;;-4.95;100.00
59337;BME280;45115;52.002;4.686;2022-11-20T02:21:18;101395.81;;;-4.94;100.00
59337;BME280;45115;52.002;4.686;2022-11-20T02:24:10;101381.38;;;-5.05;100.00
59337;BME280;45115;52.002;4.686;2022-11-20T02:26:50;101395.09;;;-5.04;100.00
59337;BME280;45115;52.002;4.686;2022-11-20T02:29:24;101375.75;;;-5.18;100.00
59337;BME280;45115;52.002;4.686;2022-11-20T02:31:53;101370.00;;;-5.30;100.00
59337;BME280;45115;52.002;4.686;2022-11-20T02:34:21;101383.59;;;-5.28;100.00
59337;BME280;45115;52.002;4.686;2022-11-20T02:36:49;101376.00;;;-5.30;100.00
59337;BME280;45115;52.002;4.686;2022-11-20T02:39:20;101377.84;;;-5.22;100.00
59337;BME280;45115;52.002;4.686;2022-11-20T02:41:47;101369.72;;;-5.27;100.00
59337;BME280;45115;52.002;4.686;2022-11-20T02:44:14;101373.09;;;-5.27;100.00
59337;BME280;45115;52.002;4.686;2022-11-20T02:46:41;101367.78;;;-5.25;100.00
59337;BME280;45115;52.002;4.686;2022-11-20T02:49:07;101360.16;;;-5.27;100.00
59337;BME280;45115;52.002;4.686;2022-11-20T02:51:34;101367.50;;;-5.22;100.00
59337;BME280;45115;52.002;4.686;2022-11-20T02:54:00;101362.00;;;-5.19;100.00
59337;BME280;45115;52.002;4.686;2022-11-20T02:56:29;101360.13;;;-5.09;100.00
59337;BME280;45115;52.002;4.686;2022-11-20T02:58:55;101364.94;;;-5.14;100.00
59337;BME280;45115;52.002;4.686;2022-11-20T03:01:22;101359.13;;;-5.16;100.00
59337;BME280;45115;52.002;4.686;2022-11-20T03:03:49;101357.78;;;-5.20;100.00
59337;BME280;45115;52.002;4.686;2022-11-20T03:06:16;101353.22;;;-5.26;100.00
59337;BME280;45115;52.002;4.686;2022-11-20T03:08:43;101341.72;;;-5.05;100.00
59337;BME280;45115;52.002;4.686;2022-11-20T03:11:10;101337.56;;;-4.98;100.00
59337;BME280;45115;52.002;4.686;2022-11-20T03:13:38;101335.56;;;-4.86;100.00
59337;BME280;45115;52.002;4.686;2022-11-20T03:16:11;101318.66;;;-4.99;100.00
59337;BME280;45115;52.002;4.686;2022-11-20T03:18:38;101332.59;;;-4.91;100.00
59337;BME280;45115;52.002;4.686;2022-11-20T03:21:05;101330.69;;;-4.89;100.00
59337;BME280;45115;52.002;4.686;2022-11-20T03:23:32;101331.84;;;-4.84;100.00
59337;BME280;45115;52.002;4.686;2022-11-20T03:26:14;101319.38;;;-4.88;100.00
59337;BME280;45115;52.002;4.686;2022-11-20T03:28:47;101314.91;;;-4.78;100.00
59337;BME280;45115;52.002;4.686;2022-11-20T03:31:16;101315.47;;;-4.66;100.00
59337;BME280;45115;52.002;4.686;2022-11-20T03:33:43;101314.00;;;-4.69;100.00
59337;BME280;45115;52.002;4.686;2022-11-20T03:36:12;101309.22;;;-4.82;100.00
59337;BME280;45115;52.002;4.686;2022-11-20T03:38:40;101311.53;;;-4.97;100.00
59337;BME280;45115;52.002;4.686;2022-11-20T03:41:09;101312.63;;;-5.08;100.00
59337;BME280;45115;52.002;4.686;2022-11-20T03:43:38;101312.91;;;-5.11;100.00
59337;BME280;45115;52.002;4.686;2022-11-20T03:46:07;101306.72;;;-5.18;100.00
59337;BME280;45115;52.002;4.686;2022-11-20T03:48:34;101301.56;;;-5.18;100.00
59337;BME280;45115;52.002;4.686;2022-11-20T03:51:08;101300.19;;;-5.04;100.00
59337;BME280;45115;52.002;4.686;2022-11-20T03:53:35;101296.50;;;-5.01;100.00
59337;BME280;45115;52.002;4.686;2022-11-20T03:56:02;101287.03;;;-5.11;100.00
59337;BME280;45115;52.002;4.686;2022-11-20T03:58:29;101294.19;;;-5.04;100.00
59337;BME280;45115;52.002;4.686;2022-11-20T04:00:56;101305.03;;;-5.01;100.00
59337;BME280;45115;52.002;4.686;2022-11-20T04:03:25;101307.94;;;-5.04;100.00
59337;BME280;45115;52.002;4.686;2022-11-20T04:05:51;101303.91;;;-5.07;100.00
59337;BME280;45115;52.002;4.686;2022-11-20T04:08:18;101306.16;;;-5.03;100.00
59337;BME280;45115;52.002;4.686;2022-11-20T04:10:45;101300.03;;;-5.02;100.00
59337;BME280;45115;52.002;4.686;2022-11-20T04:13:11;101281.50;;;-5.16;100.00
59337;BME280;45115;52.002;4.686;2022-11-20T04:15:38;101287.25;;;-5.04;100.00
59337;BME280;45115;52.002;4.686;2022-11-20T04:18:05;101277.09;;;-4.97;100.00
59337;BME280;45115;52.002;4.686;2022-11-20T04:20:33;101271.53;;;-4.84;100.00
59337;BME280;45115;52.002;4.686;2022-11-20T04:22:59;101269.94;;;-4.77;100.00
59337;BME280;45115;52.002;4.686;2022-11-20T04:25:26;101274.97;;;-4.67;100.00
59337;BME280;45115;52.002;4.686;2022-11-20T04:27:53;101264.81;;;-4.60;100.00
59337;BME280;45115;52.002;4.686;2022-11-20T04:30:19;101279.88;;;-4.56;100.00
59337;BME280;45115;52.002;4.686;2022-11-20T04:32:46;101266.28;;;-4.58;100.00
59337;BME280;45115;52.002;4.686;2022-11-20T04:35:13;101255.50;;;-4.80;100.00
59337;BME280;45115;52.002;4.686;2022-11-20T04:37:41;101264.59;;;-4.75;100.00
59337;BME280;45115;52.002;4.686;2022-11-20T04:40:08;101265.59;;;-4.68;100.00
59337;BME280;45115;52.002;4.686;2022-11-20T04:42:35;101262.06;;;-4.59;100.00
59337;BME280;45115;52.002;4.686;2022-11-20T04:45:04;101263.75;;;-4.41;100.00
59337;BME280;45115;52.002;4.686;2022-11-20T04:47:30;101267.13;;;-4.49;100.00
59337;BME280;45115;52.002;4.686;2022-11-20T04:49:57;101265.94;;;-4.63;100.00
59337;BME280;45115;52.002;4.686;2022-11-20T04:52:23;101259.28;;;-4.74;100.00
59337;BME280;45115;52.002;4.686;2022-11-20T04:54:52;101258.25;;;-4.81;100.00
59337;BME280;45115;52.002;4.686;2022-11-20T04:57:19;101256.63;;;-4.82;100.00
59337;BME280;45115;52.002;4.686;2022-11-20T04:59:46;101257.94;;;-4.78;100.00
59337;BME280;45115;52.002;4.686;2022-11-20T05:02:12;101263.28;;;-4.80;100.00
59337;BME280;45115;52.002;4.686;2022-11-20T05:04:39;101257.09;;;-4.87;100.00
59337;BME280;45115;52.002;4.686;2022-11-20T05:07:06;101273.78;;;-4.81;100.00
59337;BME280;45115;52.002;4.686;2022-11-20T05:09:32;101271.03;;;-4.80;100.00
59337;BME280;45115;52.002;4.686;2022-11-20T05:12:02;101262.31;;;-4.78;100.00
59337;BME280;45115;52.002;4.686;2022-11-20T05:14:28;101256.00;;;-4.76;100.00
59337;BME280;45115;52.002;4.686;2022-11-20T05:16:55;101262.38;;;-4.62;100.00
59337;BME280;45115;52.002;4.686;2022-11-20T05:19:22;101260.91;;;-4.64;100.00
59337;BME280;45115;52.002;4.686;2022-11-20T05:21:49;101269.34;;;-4.62;100.00
59337;BME280;45115;52.002;4.686;2022-11-20T05:24:15;101271.25;;;-4.73;100.00
59337;BME280;45115;52.002;4.686;2022-11-20T05:26:42;101274.88;;;-4.92;100.00
59337;BME280;45115;52.002;4.686;2022-11-20T05:29:11;101265.44;;;-5.01;100.00
59337;BME280;45115;52.002;4.686;2022-11-20T05:31:41;101269.94;;;-5.03;100.00
59337;BME280;45115;52.002;4.686;2022-11-20T05:34:08;101271.53;;;-5.11;100.00
59337;BME280;45115;52.002;4.686;2022-11-20T05:36:34;101280.53;;;-5.15;100.00
59337;BME280;45115;52.002;4.686;2022-11-20T05:39:01;101275.97;;;-5.21;100.00
59337;BME280;45115;52.002;4.686;2022-11-20T05:41:28;101264.66;;;-5.20;100.00
59337;BME280;45115;52.002;4.686;2022-11-20T05:43:56;101258.53;;;-5.19;100.00
59337;BME280;45115;52.002;4.686;2022-11-20T05:46:24;101256.53;;;-5.25;100.00
59337;BME280;45115;52.002;4.686;2022-11-20T05:48:51;101260.75;;;-5.24;100.00
59337;BME280;45115;52.002;4.686;2022-11-20T05:51:18;101267.75;;;-5.16;100.00
59337;BME280;45115;52.002;4.686;2022-11-20T05:53:46;101263.16;;;-5.04;100.00
59337;BME280;45115;52.002;4.686;2022-11-20T05:56:14;101259.16;;;-4.90;100.00
59337;BME280;45115;52.002;4.686;2022-11-20T05:58:41;101242.41;;;-4.78;100.00
59337;BME280;45115;52.002;4.686;2022-11-20T06:01:10;101244.25;;;-4.62;100.00
59337;BME280;45115;52.002;4.686;2022-11-20T06:03:40;101258.56;;;-4.41;100.00
59337;BME280;45115;52.002;4.686;2022-11-20T06:06:08;101259.41;;;-4.32;100.00
59337;BME280;45115;52.002;4.686;2022-11-20T06:08:34;101247.56;;;-4.35;100.00
59337;BME280;45115;52.002;4.686;2022-11-20T06:11:05;101243.41;;;-4.28;100.00
59337;BME280;45115;52.002;4.686;2022-11-20T06:13:32;101230.44;;;-4.28;100.00
59337;BME280;45115;52.002;4.686;2022-11-20T06:15:59;101242.75;;;-4.21;100.00
59337;BME280;45115;52.002;4.686;2022-11-20T06:18:26;101231.25;;;-4.19;100.00
59337;BME280;45115;52.002;4.686;2022-11-20T06:21:03;101222.84;;;-4.13;100.00
59337;BME280;45115;52.002;4.686;2022-11-20T06:23:31;101224.78;;;-4.06;100.00
59337;BME280;45115;52.002;4.686;2022-11-20T06:26:01;101226.09;;;-4.02;100.00
59337;BME280;45115;52.002;4.686;2022-11-20T06:28:28;101225.47;;;-4.04;100.00
59337;BME280;45115;52.002;4.686;2022-11-20T06:30:55;101224.16;;;-4.08;100.00
59337;BME280;45115;52.002;4.686;2022-11-20T06:33:21;101220.75;;;-4.17;100.00
59337;BME280;45115;52.002;4.686;2022-11-20T06:35:48;101206.47;;;-4.21;100.00
59337;BME280;45115;52.002;4.686;2022-11-20T06:38:16;101217.66;;;-4.21;100.00
59337;BME280;45115;52.002;4.686;2022-11-20T06:40:43;101212.31;;;-4.28;100.00
59337;BME280;45115;52.002;4.686;2022-11-20T06:43:10;101207.47;;;-4.22;100.00
59337;BME280;45115;52.002;4.686;2022-11-20T06:45:37;101212.16;;;-4.26;100.00
59337;BME280;45115;52.002;4.686;2022-11-20T06:48:04;101211.50;;;-4.20;100.00
59337;BME280;45115;52.002;4.686;2022-11-20T06:50:31;101203.56;;;-4.10;100.00
59337;BME280;45115;52.002;4.686;2022-11-20T06:53:00;101200.69;;;-4.07;100.00
59337;BME280;45115;52.002;4.686;2022-11-20T06:55:28;101203.91;;;-3.96;100.00
59337;BME280;45115;52.002;4.686;2022-11-20T06:57:55;101198.56;;;-3.87;100.00
59337;BME280;45115;52.002;4.686;2022-11-20T07:00:22;101201.31;;;-3.80;100.00
59337;BME280;45115;52.002;4.686;2022-11-20T07:02:48;101200.19;;;-3.77;100.00
59337;BME280;45115;52.002;4.686;2022-11-20T07:05:15;101195.97;;;-3.62;100.00
59337;BME280;45115;52.002;4.686;2022-11-20T07:07:42;101198.88;;;-3.56;100.00
59337;BME280;45115;52.002;4.686;2022-11-20T07:10:09;101199.97;;;-3.42;100.00
59337;BME280;45115;52.002;4.686;2022-11-20T07:12:37;101187.84;;;-3.42;100.00
59337;BME280;45115;52.002;4.686;2022-11-20T07:15:06;101190.22;;;-3.32;100.00
59337;BME280;45115;52.002;4.686;2022-11-20T07:17:32;101199.31;;;-3.28;100.00
59337;BME280;45115;52.002;4.686;2022-11-20T07:19:59;101209.34;;;-3.16;100.00
59337;BME280;45115;52.002;4.686;2022-11-20T07:22:26;101202.50;;;-3.09;100.00
59337;BME280;45115;52.002;4.686;2022-11-20T07:24:53;101206.06;;;-3.02;100.00
59337;BME280;45115;52.002;4.686;2022-11-20T07:27:19;101190.28;;;-3.00;100.00
59337;BME280;45115;52.002;4.686;2022-11-20T07:29:48;101211.50;;;-2.88;100.00
59337;BME280;45115;52.002;4.686;2022-11-20T07:32:14;101206.63;;;-2.83;100.00
59337;BME280;45115;52.002;4.686;2022-11-20T07:34:41;101209.97;;;-2.74;100.00
59337;BME280;45115;52.002;4.686;2022-11-20T07:37:08;101215.63;;;-2.62;100.00
59337;BME280;45115;52.002;4.686;2022-11-20T07:39:34;101207.78;;;-2.54;100.00
59337;BME280;45115;52.002;4.686;2022-11-20T07:42:01;101220.91;;;-2.47;100.00
59337;BME280;45115;52.002;4.686;2022-11-20T07:44:28;101215.03;;;-2.41;100.00
59337;BME280;45115;52.002;4.686;2022-11-20T07:46:56;101211.91;;;-2.36;100.00
59337;BME280;45115;52.002;4.686;2022-11-20T07:49:23;101205.09;;;-2.37;100.00
59337;BME280;45115;52.002;4.686;2022-11-20T07:51:50;101209.84;;;-2.41;100.00
59337;BME280;45115;52.002;4.686;2022-11-20T07:54:16;101206.53;;;-2.35;100.00
59337;BME280;45115;52.002;4.686;2022-11-20T07:56:43;101205.22;;;-2.31;100.00
59337;BME280;45115;52.002;4.686;2022-11-20T07:59:09;101202.91;;;-2.25;100.00
59337;BME280;45115;52.002;4.686;2022-11-20T08:01:37;101206.13;;;-2.23;100.00
59337;BME280;45115;52.002;4.686;2022-11-20T08:04:05;101209.38;;;-2.21;100.00
59337;BME280;45115;52.002;4.686;2022-11-20T08:06:32;101195.41;;;-2.20;100.00
59337;BME280;45115;52.002;4.686;2022-11-20T08:08:59;101206.38;;;-2.10;100.00
59337;BME280;45115;52.002;4.686;2022-11-20T08:11:25;101204.75;;;-2.11;100.00
59337;BME280;45115;52.002;4.686;2022-11-20T08:14:09;101209.03;;;-1.95;100.00
59337;BME280;45115;52.002;4.686;2022-11-20T08:16:39;101219.00;;;-1.83;100.00
59337;BME280;45115;52.002;4.686;2022-11-20T08:19:07;101213.09;;;-1.77;100.00
59337;BME280;45115;52.002;4.686;2022-11-20T08:21:34;101203.50;;;-1.77;100.00
59337;BME280;45115;52.002;4.686;2022-11-20T08:24:00;101203.97;;;-1.73;100.00
59337;BME280;45115;52.002;4.686;2022-11-20T08:26:27;101198.31;;;-1.77;100.00
59337;BME280;45115;52.002;4.686;2022-11-20T08:28:54;101187.09;;;-1.77;100.00
59337;BME280;45115;52.002;4.686;2022-11-20T08:31:21;101197.88;;;-1.65;100.00
59337;BME280;45115;52.002;4.686;2022-11-20T08:33:48;101194.28;;;-1.64;100.00
59337;BME280;45115;52.002;4.686;2022-11-20T08:36:17;101186.88;;;-1.52;100.00
59337;BME280;45115;52.002;4.686;2022-11-20T08:38:47;101187.25;;;-1.40;100.00
59337;BME280;45115;52.002;4.686;2022-11-20T08:41:13;101195.16;;;-1.34;100.00
59337;BME280;45115;52.002;4.686;2022-11-20T08:43:54;101187.88;;;-1.38;100.00
59337;BME280;45115;52.002;4.686;2022-11-20T08:46:22;101179.81;;;-1.28;100.00
59337;BME280;45115;52.002;4.686;2022-11-20T08:48:49;101178.34;;;-1.16;100.00
59337;BME280;45115;52.002;4.686;2022-11-20T08:51:18;101177.53;;;-1.01;100.00
59337;BME280;45115;52.002;4.686;2022-11-20T08:53:45;101178.72;;;-1.04;100.00
59337;BME280;45115;52.002;4.686;2022-11-20T08:56:13;101187.84;;;-0.93;100.00
59337;BME280;45115;52.002;4.686;2022-11-20T08:58:40;101183.53;;;-0.86;100.00
59337;BME280;45115;52.002;4.686;2022-11-20T09:01:07;101180.56;;;-0.83;100.00
59337;BME280;45115;52.002;4.686;2022-11-20T09:03:33;101177.47;;;-0.71;100.00
59337;BME280;45115;52.002;4.686;2022-11-20T09:06:02;101172.47;;;-0.73;100.00
59337;BME280;45115;52.002;4.686;2022-11-20T09:08:30;101195.50;;;-0.55;100.00
59337;BME280;45115;52.002;4.686;2022-11-20T09:10:58;101181.34;;;-0.45;100.00
59337;BME280;45115;52.002;4.686;2022-11-20T09:13:26;101163.75;;;-0.43;100.00
59337;BME280;45115;52.002;4.686;2022-11-20T09:15:53;101165.00;;;-0.39;100.00
59337;BME280;45115;52.002;4.686;2022-11-20T09:18:21;101159.56;;;-0.37;100.00
59337;BME280;45115;52.002;4.686;2022-11-20T09:20:48;101152.56;;;-0.37;100.00
59337;BME280;45115;52.002;4.686;2022-11-20T09:23:15;101151.28;;;-0.26;100.00
59337;BME280;45115;52.002;4.686;2022-11-20T09:25:43;101149.28;;;-0.24;100.00
59337;BME280;45115;52.002;4.686;2022-11-20T09:28:10;101153.56;;;-0.16;100.00
59337;BME280;45115;52.002;4.686;2022-11-20T09:30:36;101141.38;;;-0.09;100.00
59337;BME280;45115;52.002;4.686;2022-11-20T09:33:04;101143.47;;;0.03;100.00
59337;BME280;45115;52.002;4.686;2022-11-20T09:35:31;101128.03;;;0.08;100.00
59337;BME280;45115;52.002;4.686;2022-11-20T09:37:58;101136.41;;;0.25;100.00
59337;BME280;45115;52.002;4.686;2022-11-20T09:40:27;101127.78;;;0.31;100.00
59337;BME280;45115;52.002;4.686;2022-11-20T09:42:58;101117.56;;;0.30;100.00
59337;BME280;45115;52.002;4.686;2022-11-20T09:45:37;101108.69;;;0.24;100.00
59337;BME280;45115;52.002;4.686;2022-11-20T09:48:26;101121.00;;;0.37;100.00
59337;BME280;45115;52.002;4.686;2022-11-20T09:50:59;101115.25;;;0.48;100.00
59337;BME280;45115;52.002;4.686;2022-11-20T09:53:35;101081.88;;;0.37;100.00
59337;BME280;45115;52.002;4.686;2022-11-20T09:56:08;101093.19;;;0.51;100.00
59337;BME280;45115;52.002;4.686;2022-11-20T09:58:40;101103.88;;;0.63;100.00
59337;BME280;45115;52.002;4.686;2022-11-20T10:01:11;101104.28;;;0.66;100.00
59337;BME280;45115;52.002;4.686;2022-11-20T10:03:48;101099.09;;;0.73;100.00
59337;BME280;45115;52.002;4.686;2022-11-20T10:06:17;101102.31;;;0.75;100.00
59337;BME280;45115;52.002;4.686;2022-11-20T10:08:50;101087.88;;;0.79;100.00
59337;BME280;45115;52.002;4.686;2022-11-20T10:11:28;101086.69;;;0.89;100.00
59337;BME280;45115;52.002;4.686;2022-11-20T10:14:07;101070.63;;;0.92;100.00
59337;BME280;45115;52.002;4.686;2022-11-20T10:16:43;101063.34;;;0.74;100.00
59337;BME280;45115;52.002;4.686;2022-11-20T10:19:28;101054.47;;;0.61;100.00
59337;BME280;45115;52.002;4.686;2022-11-20T10:22:03;101050.03;;;0.55;100.00
59337;BME280;45115;52.002;4.686;2022-11-20T10:24:44;101042.41;;;0.60;100.00
59337;BME280;45115;52.002;4.686;2022-11-20T10:27:40;101044.19;;;0.53;100.00
59337;BME280;45115;52.002;4.686;2022-11-20T10:30:12;101047.84;;;0.65;100.00
59337;BME280;45115;52.002;4.686;2022-11-20T10:32:40;101035.03;;;0.77;100.00
59337;BME280;45115;52.002;4.686;2022-11-20T10:35:19;101026.38;;;0.77;100.00
59337;BME280;45115;52.002;4.686;2022-11-20T10:37:50;101005.72;;;0.82;100.00
59337;BME280;45115;52.002;4.686;2022-11-20T10:40:22;101009.13;;;0.96;100.00
59337;BME280;45115;52.002;4.686;2022-11-20T10:42:53;101001.31;;;0.96;100.00
59337;BME280;45115;52.002;4.686;2022-11-20T10:45:32;101001.13;;;1.04;100.00
59337;BME280;45115;52.002;4.686;2022-11-20T10:48:10;101004.75;;;1.03;100.00
59337;BME280;45115;52.002;4.686;2022-11-20T10:50:43;101001.50;;;1.01;100.00
59337;BME280;45115;52.002;4.686;2022-11-20T10:53:20;101001.72;;;1.06;100.00
59337;BME280;45115;52.002;4.686;2022-11-20T10:55:55;100989.25;;;1.15;100.00
59337;BME280;45115;52.002;4.686;2022-11-20T10:58:32;100988.06;;;1.11;100.00
59337;BME280;45115;52.002;4.686;2022-11-20T11:01:05;100980.59;;;1.01;100.00
59337;BME280;45115;52.002;4.686;2022-11-20T11:03:32;100979.03;;;1.14;100.00
59337;BME280;45115;52.002;4.686;2022-11-20T11:06:03;100990.09;;;1.29;100.00
59337;BME280;45115;52.002;4.686;2022-11-20T11:08:37;100986.25;;;1.39;100.00
59337;BME280;45115;52.002;4.686;2022-11-20T11:11:18;100968.97;;;1.44;100.00
59337;BME280;45115;52.002;4.686;2022-11-20T11:13:46;100971.38;;;1.46;100.00
59337;BME280;45115;52.002;4.686;2022-11-20T11:16:22;100969.75;;;1.52;100.00
59337;BME280;45115;52.002;4.686;2022-11-20T11:18:49;100961.69;;;1.53;100.00
59337;BME280;45115;52.002;4.686;2022-11-20T11:21:22;100962.09;;;1.57;100.00
59337;BME280;45115;52.002;4.686;2022-11-20T11:23:58;100949.00;;;1.64;100.00
59337;BME280;45115;52.002;4.686;2022-11-20T11:26:26;100922.91;;;1.43;100.00
59337;BME280;45115;52.002;4.686;2022-11-20T11:28:55;100920.69;;;1.54;100.00
59337;BME280;45115;52.002;4.686;2022-11-20T11:31:28;100920.22;;;1.70;100.00
59337;BME280;45115;52.002;4.686;2022-11-20T11:34:07;100919.81;;;1.73;100.00
59337;BME280;45115;52.002;4.686;2022-11-20T11:36:38;100914.38;;;1.68;100.00
59337;BME280;45115;52.002;4.686;2022-11-20T11:39:15;100899.13;;;1.65;100.00
59337;BME280;45115;52.002;4.686;2022-11-20T11:41:49;100894.28;;;1.62;100.00
59337;BME280;45115;52.002;4.686;2022-11-20T11:44:20;100887.47;;;1.54;100.00
59337;BME280;45115;52.002;4.686;2022-11-20T11:47:11;100875.66;;;1.45;100.00
59337;BME280;45115;52.002;4.686;2022-11-20T11:49:46;100864.00;;;1.41;100.00
59337;BME280;45115;52.002;4.686;2022-11-20T11:52:22;100852.53;;;1.35;100.00
59337;BME280;45115;52.002;4.686;2022-11-20T11:54:53;100844.31;;;1.31;100.00
59337;BME280;45115;52.002;4.686;2022-11-20T11:57:26;100821.16;;;1.35;100.00
59337;BME280;45115;52.002;4.686;2022-11-20T12:00:01;100818.75;;;1.40;100.00
59337;BME280;45115;52.002;4.686;2022-11-20T12:02:36;100810.50;;;1.43;100.00
59337;BME280;45115;52.002;4.686;2022-11-20T12:05:13;100815.53;;;1.45;100.00
59337;BME280;45115;52.002;4.686;2022-11-20T12:07:45;100820.53;;;1.46;100.00
59337;BME280;45115;52.002;4.686;2022-11-20T12:10:21;100816.47;;;1.57;100.00
59337;BME280;45115;52.002;4.686;2022-11-20T12:12:52;100825.09;;;1.58;100.00
59337;BME280;45115;52.002;4.686;2022-11-20T12:15:26;100827.91;;;1.63;100.00
59337;BME280;45115;52.002;4.686;2022-11-20T12:17:56;100820.41;;;1.73;100.00
59337;BME280;45115;52.002;4.686;2022-11-20T12:20:27;100828.25;;;1.73;100.00
59337;BME280;45115;52.002;4.686;2022-11-20T12:23:02;100817.19;;;1.78;100.00
59337;BME280;45115;52.002;4.686;2022-11-20T12:25:35;100813.31;;;1.88;100.00
59337;BME280;45115;52.002;4.686;2022-11-20T12:28:26;100817.16;;;1.85;100.00
59337;BME280;45115;52.002;4.686;2022-11-20T12:31:05;100806.25;;;1.88;100.00
59337;BME280;45115;52.002;4.686;2022-11-20T12:33:54;100814.47;;;1.92;100.00
59337;BME280;45115;52.002;4.686;2022-11-20T12:36:33;100822.91;;;2.01;100.00
59337;BME280;45115;52.002;4.686;2022-11-20T12:39:30;100815.22;;;2.06;100.00
59337;BME280;45115;52.002;4.686;2022-11-20T12:42:27;100812.38;;;2.07;100.00
59337;BME280;45115;52.002;4.686;2022-11-20T12:45:22;100806.53;;;2.12;100.00
59337;BME280;45115;52.002;4.686;2022-11-20T12:48:07;100782.13;;;2.18;100.00
59337;BME280;45115;52.002;4.686;2022-11-20T12:50:50;100778.69;;;2.18;100.00
59337;BME280;45115;52.002;4.686;2022-11-20T12:53:27;100784.94;;;2.17;100.00
59337;BME280;45115;52.002;4.686;2022-11-20T12:56:02;100767.22;;;2.19;100.00
59337;BME280;45115;52.002;4.686;2022-11-20T12:58:39;100757.72;;;2.24;100.00